sensor_id;sensor_type;location;lat;lon;timestamp;temperature;humidity
8408;DHT22;4241;48.452;9.216;2023-12-28T00:01:38;11.60;59.40
8408;DHT22;4241;48.452;9.216;2023-12-28T00:04:05;11.50;58.50
8408;DHT22;4241;48.452;9.216;2023-12-28T00:06:33;11.90;58.10
8408;DHT22;4241;48.452;9.216;2023-12-28T00:09:00;12.20;58.70
8408;DHT22;4241;48.452;9.216;2023-12-28T00:11:27;12.00;58.20
8408;DHT22;4241;48.452;9.216;2023-12-28T00:13:53;11.80;58.10
8408;DHT22;4241;48.452;9.216;2023-12-28T00:16:20;11.90;59.50
8408;DHT22;4241;48.452;9.216;2023-12-28T00:18:47;11.70;58.70
8408;DHT22;4241;48.452;9.216;2023-12-28T00:21:14;11.70;59.70
8408;DHT22;4241;48.452;9.216;2023-12-28T00:23:42;11.70;58.50
8408;DHT22;4241;48.452;9.216;2023-12-28T00:26:09;11.70;59.50
8408;DHT22;4241;48.452;9.216;2023-12-28T00:28:35;12.00;58.90
8408;DHT22;4241;48.452;9.216;2023-12-28T00:31:02;11.80;59.50
8408;DHT22;4241;48.452;9.216;2023-12-28T00:33:29;11.50;58.10
8408;DHT22;4241;48.452;9.216;2023-12-28T00:35:56;11.70;59.20
8408;DHT22;4241;48.452;9.216;2023-12-28T00:38:23;11.70;59.60
8408;DHT22;4241;48.452;9.216;2023-12-28T00:40:51;11.70;58.60
8408;DHT22;4241;48.452;9.216;2023-12-28T00:43:18;11.90;59.40
8408;DHT22;4241;48.452;9.216;2023-12-28T00:45:45;11.80;58.90
8408;DHT22;4241;48.452;9.216;2023-12-28T00:48:11;11.80;59.00
8408;DHT22;4241;48.452;9.216;2023-12-28T00:50:38;12.00;58.40
8408;DHT22;4241;48.452;9.216;2023-12-28T00:53:05;12.10;58.80
8408;DHT22;4241;48.452;9.216;2023-12-28T00:55:32;11.80;58.90
8408;DHT22;4241;48.452;9.216;2023-12-28T00:58:00;11.80;59.80
8408;DHT22;4241;48.452;9.216;2023-12-28T01:00:27;11.80;59.60
8408;DHT22;4241;48.452;9.216;2023-12-28T01:02:54;12.20;59.20
8408;DHT22;4241;48.452;9.216;2023-12-28T01:05:21;11.90;59.40
8408;DHT22;4241;48.452;9.216;2023-12-28T01:07:51;11.70;58.50
8408;DHT22;4241;48.452;9.216;2023-12-28T01:10:18;11.90;58.80
8408;DHT22;4241;48.452;9.216;2023-12-28T01:12:45;11.70;58.60
8408;DHT22;4241;48.452;9.216;2023-12-28T01:15:13;11.70;58.80
8408;DHT22;4241;48.452;9.216;2023-12-28T01:17:43;11.60;58.80
8408;DHT22;4241;48.452;9.216;2023-12-28T01:20:10;11.70;59.60
8408;DHT22;4241;48.452;9.216;2023-12-28T01:22:37;11.60;58.90
8408;DHT22;4241;48.452;9.216;2023-12-28T01:25:04;12.00;60.60
8408;DHT22;4241;48.452;9.216;2023-12-28T01:27:31;11.70;58.50
8408;DHT22;4241;48.452;9.216;2023-12-28T01:29:58;12.60;58.60
8408;DHT22;4241;48.452;9.216;2023-12-28T01:32:26;12.40;58.50
8408;DHT22;4241;48.452;9.216;2023-12-28T01:34:53;12.30;59.00
8408;DHT22;4241;48.452;9.216;2023-12-28T01:37:20;11.90;58.40
8408;DHT22;4241;48.452;9.216;2023-12-28T01:39:46;11.90;58.00
8408;DHT22;4241;48.452;9.216;2023-12-28T01:42:13;11.90;53.10
8408;DHT22;4241;48.452;9.216;2023-12-28T01:44:40;11.90;53.00
8408;DHT22;4241;48.452;9.216;2023-12-28T01:47:07;11.90;54.30
8408;DHT22;4241;48.452;9.216;2023-12-28T01:49:36;12.20;54.60
8408;DHT22;4241;48.452;9.216;2023-12-28T01:52:04;11.80;54.30
8408;DHT22;4241;48.452;9.216;2023-12-28T01:54:31;11.80;54.60
8408;DHT22;4241;48.452;9.216;2023-12-28T01:57:00;11.70;55.10
8408;DHT22;4241;48.452;9.216;2023-12-28T01:59:28;11.90;56.40
8408;DHT22;4241;48.452;9.216;2023-12-28T02:01:55;11.70;55.80
8408;DHT22;4241;48.452;9.216;2023-12-28T02:04:22;11.70;56.60
8408;DHT22;4241;48.452;9.216;2023-12-28T02:06:57;11.60;56.80
8408;DHT22;4241;48.452;9.216;2023-12-28T02:09:24;11.70;56.70
8408;DHT22;4241;48.452;9.216;2023-12-28T02:11:51;12.00;57.30
8408;DHT22;4241;48.452;9.216;2023-12-28T02:14:19;12.10;57.30
8408;DHT22;4241;48.452;9.216;2023-12-28T02:16:49;12.00;58.30
8408;DHT22;4241;48.452;9.216;2023-12-28T02:19:25;12.00;57.50
8408;DHT22;4241;48.452;9.216;2023-12-28T02:21:52;11.70;57.00
8408;DHT22;4241;48.452;9.216;2023-12-28T02:24:22;11.70;55.10
8408;DHT22;4241;48.452;9.216;2023-12-28T02:26:50;11.70;56.00
8408;DHT22;4241;48.452;9.216;2023-12-28T02:29:18;11.70;56.10
8408;DHT22;4241;48.452;9.216;2023-12-28T02:31:51;12.00;56.60
8408;DHT22;4241;48.452;9.216;2023-12-28T02:34:25;11.70;56.40
8408;DHT22;4241;48.452;9.216;2023-12-28T02:36:56;12.00;57.30
8408;DHT22;4241;48.452;9.216;2023-12-28T02:39:24;12.00;56.90
8408;DHT22;4241;48.452;9.216;2023-12-28T02:41:52;12.00;56.80
8408;DHT22;4241;48.452;9.216;2023-12-28T02:44:21;12.20;57.30
8408;DHT22;4241;48.452;9.216;2023-12-28T02:46:48;11.60;57.50
8408;DHT22;4241;48.452;9.216;2023-12-28T02:49:15;11.80;56.90
8408;DHT22;4241;48.452;9.216;2023-12-28T02:51:41;12.00;59.10
8408;DHT22;4241;48.452;9.216;2023-12-28T02:54:08;11.50;57.70
8408;DHT22;4241;48.452;9.216;2023-12-28T02:56:35;11.50;57.00
8408;DHT22;4241;48.452;9.216;2023-12-28T02:59:03;11.90;57.90
8408;DHT22;4241;48.452;9.216;2023-12-28T03:01:30;11.50;57.40
8408;DHT22;4241;48.452;9.216;2023-12-28T03:03:57;11.40;57.90
8408;DHT22;4241;48.452;9.216;2023-12-28T03:06:24;11.60;57.60
8408;DHT22;4241;48.452;9.216;2023-12-28T03:08:51;11.40;57.50
8408;DHT22;4241;48.452;9.216;2023-12-28T03:11:18;12.00;57.80
8408;DHT22;4241;48.452;9.216;2023-12-28T03:13:46;11.50;58.00
8408;DHT22;4241;48.452;9.216;2023-12-28T03:16:15;11.80;57.60
8408;DHT22;4241;48.452;9.216;2023-12-28T03:18:42;11.80;57.80
8408;DHT22;4241;48.452;9.216;2023-12-28T03:21:08;12.00;58.00
8408;DHT22;4241;48.452;9.216;2023-12-28T03:23:35;11.60;58.40
8408;DHT22;4241;48.452;9.216;2023-12-28T03:26:02;11.50;58.00
8408;DHT22;4241;48.452;9.216;2023-12-28T03:28:29;11.60;57.90
8408;DHT22;4241;48.452;9.216;2023-12-28T03:30:55;12.10;58.10
8408;DHT22;4241;48.452;9.216;2023-12-28T03:33:25;11.60;58.80
8408;DHT22;4241;48.452;9.216;2023-12-28T03:35:52;12.00;58.30
8408;DHT22;4241;48.452;9.216;2023-12-28T03:38:19;11.60;57.90
8408;DHT22;4241;48.452;9.216;2023-12-28T03:40:46;12.00;58.70
8408;DHT22;4241;48.452;9.216;2023-12-28T03:43:14;11.40;58.10
8408;DHT22;4241;48.452;9.216;2023-12-28T03:45:41;11.30;54.60
8408;DHT22;4241;48.452;9.216;2023-12-28T03:48:08;11.30;55.10
8408;DHT22;4241;48.452;9.216;2023-12-28T03:50:36;11.40;56.50
8408;DHT22;4241;48.452;9.216;2023-12-28T03:53:03;11.20;56.90
8408;DHT22;4241;48.452;9.216;2023-12-28T03:55:30;11.30;57.40
8408;DHT22;4241;48.452;9.216;2023-12-28T03:57:57;11.70;58.20
8408;DHT22;4241;48.452;9.216;2023-12-28T04:00:24;11.20;58.10
8408;DHT22;4241;48.452;9.216;2023-12-28T04:02:51;11.10;58.60
8408;DHT22;4241;48.452;9.216;2023-12-28T04:05:18;10.50;57.70
8408;DHT22;4241;48.452;9.216;2023-12-28T04:07:46;11.10;58.80
8408;DHT22;4241;48.452;9.216;2023-12-28T04:10:15;11.90;58.80
8408;DHT22;4241;48.452;9.216;2023-12-28T04:12:42;11.40;58.50
8408;DHT22;4241;48.452;9.216;2023-12-28T04:15:09;11.30;58.90
8408;DHT22;4241;48.452;9.216;2023-12-28T04:17:36;11.30;58.60
8408;DHT22;4241;48.452;9.216;2023-12-28T04:20:03;11.30;59.50
8408;DHT22;4241;48.452;9.216;2023-12-28T04:22:30;11.20;59.20
8408;DHT22;4241;48.452;9.216;2023-12-28T04:24:58;11.30;60.50
8408;DHT22;4241;48.452;9.216;2023-12-28T04:27:25;11.60;61.10
8408;DHT22;4241;48.452;9.216;2023-12-28T04:29:52;11.20;61.20
8408;DHT22;4241;48.452;9.216;2023-12-28T04:32:19;10.90;60.60
8408;DHT22;4241;48.452;9.216;2023-12-28T04:34:45;11.60;62.30
8408;DHT22;4241;48.452;9.216;2023-12-28T04:37:12;11.60;61.90
8408;DHT22;4241;48.452;9.216;2023-12-28T04:39:39;11.60;62.50
8408;DHT22;4241;48.452;9.216;2023-12-28T04:42:07;11.60;63.10
8408;DHT22;4241;48.452;9.216;2023-12-28T04:44:37;11.10;63.40
8408;DHT22;4241;48.452;9.216;2023-12-28T04:47:05;11.50;63.60
8408;DHT22;4241;48.452;9.216;2023-12-28T04:49:32;11.00;63.70
8408;DHT22;4241;48.452;9.216;2023-12-28T04:51:58;11.40;64.90
8408;DHT22;4241;48.452;9.216;2023-12-28T04:54:25;11.50;65.00
8408;DHT22;4241;48.452;9.216;2023-12-28T04:56:53;11.60;66.60
8408;DHT22;4241;48.452;9.216;2023-12-28T04:59:21;11.00;66.10
8408;DHT22;4241;48.452;9.216;2023-12-28T05:01:48;11.10;67.30
8408;DHT22;4241;48.452;9.216;2023-12-28T05:04:14;11.10;69.00
8408;DHT22;4241;48.452;9.216;2023-12-28T05:06:41;11.10;69.70
8408;DHT22;4241;48.452;9.216;2023-12-28T05:09:08;11.60;69.40
8408;DHT22;4241;48.452;9.216;2023-12-28T05:11:35;11.40;71.20
8408;DHT22;4241;48.452;9.216;2023-12-28T05:14:02;11.20;69.50
8408;DHT22;4241;48.452;9.216;2023-12-28T05:16:30;11.50;71.70
8408;DHT22;4241;48.452;9.216;2023-12-28T05:18:57;11.10;71.40
8408;DHT22;4241;48.452;9.216;2023-12-28T05:21:23;11.60;73.30
8408;DHT22;4241;48.452;9.216;2023-12-28T05:23:50;11.50;72.20
8408;DHT22;4241;48.452;9.216;2023-12-28T05:26:17;11.40;73.30
8408;DHT22;4241;48.452;9.216;2023-12-28T05:28:44;11.80;75.20
8408;DHT22;4241;48.452;9.216;2023-12-28T05:31:11;11.90;77.10
8408;DHT22;4241;48.452;9.216;2023-12-28T05:33:40;13.30;79.50
8408;DHT22;4241;48.452;9.216;2023-12-28T05:36:07;11.50;80.30
8408;DHT22;4241;48.452;9.216;2023-12-28T05:38:34;9.80;82.40
8408;DHT22;4241;48.452;9.216;2023-12-28T05:41:01;11.60;86.50
8408;DHT22;4241;48.452;9.216;2023-12-28T05:45:55;11.60;85.50
8408;DHT22;4241;48.452;9.216;2023-12-28T05:48:21;11.90;90.50
8408;DHT22;4241;48.452;9.216;2023-12-28T05:50:50;12.10;91.50
8408;DHT22;4241;48.452;9.216;2023-12-28T05:53:16;11.70;92.20
8408;DHT22;4241;48.452;9.216;2023-12-28T05:55:43;11.80;92.80
8408;DHT22;4241;48.452;9.216;2023-12-28T05:58:10;11.40;93.10
8408;DHT22;4241;48.452;9.216;2023-12-28T06:00:37;11.60;94.40
8408;DHT22;4241;48.452;9.216;2023-12-28T06:03:04;12.10;95.80
8408;DHT22;4241;48.452;9.216;2023-12-28T06:05:31;11.90;96.30
8408;DHT22;4241;48.452;9.216;2023-12-28T06:07:59;11.60;97.10
8408;DHT22;4241;48.452;9.216;2023-12-28T06:10:26;11.60;97.50
8408;DHT22;4241;48.452;9.216;2023-12-28T06:12:53;11.60;98.00
8408;DHT22;4241;48.452;9.216;2023-12-28T06:15:20;11.60;98.80
8408;DHT22;4241;48.452;9.216;2023-12-28T06:17:47;11.60;99.20
8408;DHT22;4241;48.452;9.216;2023-12-28T06:20:14;11.60;99.60
8408;DHT22;4241;48.452;9.216;2023-12-28T06:22:41;11.60;99.60
8408;DHT22;4241;48.452;9.216;2023-12-28T06:25:11;11.70;99.70
8408;DHT22;4241;48.452;9.216;2023-12-28T06:27:38;11.60;99.80
8408;DHT22;4241;48.452;9.216;2023-12-28T06:30:06;11.70;99.90
8408;DHT22;4241;48.452;9.216;2023-12-28T06:32:32;11.60;99.90
8408;DHT22;4241;48.452;9.216;2023-12-28T06:34:59;12.00;99.90
8408;DHT22;4241;48.452;9.216;2023-12-28T06:37:26;11.70;99.90
8408;DHT22;4241;48.452;9.216;2023-12-28T06:39:53;12.00;99.90
8408;DHT22;4241;48.452;9.216;2023-12-28T06:42:21;11.90;99.90
8408;DHT22;4241;48.452;9.216;2023-12-28T06:44:48;12.00;99.90
8408;DHT22;4241;48.452;9.216;2023-12-28T06:47:14;11.90;99.90
8408;DHT22;4241;48.452;9.216;2023-12-28T06:49:41;11.60;99.90
8408;DHT22;4241;48.452;9.216;2023-12-28T06:52:08;11.90;99.90
8408;DHT22;4241;48.452;9.216;2023-12-28T06:54:35;11.70;99.90
8408;DHT22;4241;48.452;9.216;2023-12-28T06:57:02;12.20;99.90
8408;DHT22;4241;48.452;9.216;2023-12-28T06:59:30;11.70;99.90
8408;DHT22;4241;48.452;9.216;2023-12-28T07:01:57;11.70;99.90
8408;DHT22;4241;48.452;9.216;2023-12-28T07:04:23;12.00;99.90
8408;DHT22;4241;48.452;9.216;2023-12-28T07:06:54;11.70;99.90
8408;DHT22;4241;48.452;9.216;2023-12-28T07:09:21;12.00;99.90
8408;DHT22;4241;48.452;9.216;2023-12-28T07:11:48;11.60;99.90
8408;DHT22;4241;48.452;9.216;2023-12-28T07:14:15;11.70;99.90
8408;DHT22;4241;48.452;9.216;2023-12-28T07:16:43;11.80;99.90
8408;DHT22;4241;48.452;9.216;2023-12-28T07:19:10;12.00;99.90
8408;DHT22;4241;48.452;9.216;2023-12-28T07:21:36;12.10;99.90
8408;DHT22;4241;48.452;9.216;2023-12-28T07:24:04;11.70;99.90
8408;DHT22;4241;48.452;9.216;2023-12-28T07:26:31;11.90;99.90
8408;DHT22;4241;48.452;9.216;2023-12-28T07:28:57;11.70;99.90
8408;DHT22;4241;48.452;9.216;2023-12-28T07:31:24;11.70;99.90
8408;DHT22;4241;48.452;9.216;2023-12-28T07:33:53;12.20;99.90
8408;DHT22;4241;48.452;9.216;2023-12-28T07:36:20;11.80;99.90
8408;DHT22;4241;48.452;9.216;2023-12-28T07:38:47;11.80;99.30
8408;DHT22;4241;48.452;9.216;2023-12-28T07:41:14;12.20;99.90
8408;DHT22;4241;48.452;9.216;2023-12-28T07:43:41;11.70;99.20
8408;DHT22;4241;48.452;9.216;2023-12-28T07:46:07;12.00;98.30
8408;DHT22;4241;48.452;9.216;2023-12-28T07:48:34;11.70;97.90
8408;DHT22;4241;48.452;9.216;2023-12-28T07:51:05;11.70;97.50
8408;DHT22;4241;48.452;9.216;2023-12-28T07:53:33;11.70;98.30
8408;DHT22;4241;48.452;9.216;2023-12-28T07:56:00;11.60;97.10
8408;DHT22;4241;48.452;9.216;2023-12-28T07:58:26;12.40;97.80
8408;DHT22;4241;48.452;9.216;2023-12-28T08:00:53;12.30;97.20
8408;DHT22;4241;48.452;9.216;2023-12-28T08:03:20;13.50;98.50
8408;DHT22;4241;48.452;9.216;2023-12-28T08:05:47;11.70;95.40
8408;DHT22;4241;48.452;9.216;2023-12-28T08:08:15;12.10;96.80
8408;DHT22;4241;48.452;9.216;2023-12-28T08:10:42;11.60;96.60
8408;DHT22;4241;48.452;9.216;2023-12-28T08:13:08;11.80;93.80
8408;DHT22;4241;48.452;9.216;2023-12-28T08:15:35;12.00;93.40
8408;DHT22;4241;48.452;9.216;2023-12-28T08:18:02;11.70;94.10
8408;DHT22;4241;48.452;9.216;2023-12-28T08:20:29;11.60;93.80
8408;DHT22;4241;48.452;9.216;2023-12-28T08:22:56;11.70;94.30
8408;DHT22;4241;48.452;9.216;2023-12-28T08:25:24;11.70;95.30
8408;DHT22;4241;48.452;9.216;2023-12-28T08:27:51;11.80;95.90
8408;DHT22;4241;48.452;9.216;2023-12-28T08:30:18;12.40;95.60
8408;DHT22;4241;48.452;9.216;2023-12-28T08:32:45;11.90;95.90
8408;DHT22;4241;48.452;9.216;2023-12-28T08:35:12;12.40;95.40
8408;DHT22;4241;48.452;9.216;2023-12-28T08:37:39;11.90;95.50
8408;DHT22;4241;48.452;9.216;2023-12-28T08:40:07;12.30;95.20
8408;DHT22;4241;48.452;9.216;2023-12-28T08:42:35;11.90;93.80
8408;DHT22;4241;48.452;9.216;2023-12-28T08:45:02;12.00;93.30
8408;DHT22;4241;48.452;9.216;2023-12-28T08:47:29;12.00;93.80
8408;DHT22;4241;48.452;9.216;2023-12-28T08:49:56;12.10;92.50
8408;DHT22;4241;48.452;9.216;2023-12-28T08:52:22;12.00;92.30
8408;DHT22;4241;48.452;9.216;2023-12-28T08:54:49;12.00;93.50
8408;DHT22;4241;48.452;9.216;2023-12-28T08:57:16;12.00;93.80
8408;DHT22;4241;48.452;9.216;2023-12-28T08:59:44;12.40;93.80
8408;DHT22;4241;48.452;9.216;2023-12-28T09:02:11;12.30;94.20
8408;DHT22;4241;48.452;9.216;2023-12-28T09:04:38;12.00;93.90
8408;DHT22;4241;48.452;9.216;2023-12-28T09:07:05;12.00;92.30
8408;DHT22;4241;48.452;9.216;2023-12-28T09:09:32;12.00;92.40
8408;DHT22;4241;48.452;9.216;2023-12-28T09:11:58;12.00;92.70
8408;DHT22;4241;48.452;9.216;2023-12-28T09:14:25;12.30;93.20
8408;DHT22;4241;48.452;9.216;2023-12-28T09:16:53;12.00;92.90
8408;DHT22;4241;48.452;9.216;2023-12-28T09:19:20;12.20;94.60
8408;DHT22;4241;48.452;9.216;2023-12-28T09:21:48;12.10;94.40
8408;DHT22;4241;48.452;9.216;2023-12-28T09:24:15;12.10;94.70
8408;DHT22;4241;48.452;9.216;2023-12-28T09:26:44;12.70;95.10
8408;DHT22;4241;48.452;9.216;2023-12-28T09:29:11;12.60;94.30
8408;DHT22;4241;48.452;9.216;2023-12-28T09:31:39;12.20;94.00
8408;DHT22;4241;48.452;9.216;2023-12-28T09:34:07;12.40;94.60
8408;DHT22;4241;48.452;9.216;2023-12-28T09:36:34;12.30;94.90
8408;DHT22;4241;48.452;9.216;2023-12-28T09:39:00;12.00;93.90
8408;DHT22;4241;48.452;9.216;2023-12-28T09:41:30;12.20;95.40
8408;DHT22;4241;48.452;9.216;2023-12-28T09:44:06;12.60;97.30
8408;DHT22;4241;48.452;9.216;2023-12-28T09:46:33;12.10;97.00
8408;DHT22;4241;48.452;9.216;2023-12-28T09:49:01;12.60;97.60
8408;DHT22;4241;48.452;9.216;2023-12-28T09:51:29;12.20;99.90
8408;DHT22;4241;48.452;9.216;2023-12-28T09:53:56;12.20;96.90
8408;DHT22;4241;48.452;9.216;2023-12-28T09:56:23;12.20;97.00
8408;DHT22;4241;48.452;9.216;2023-12-28T09:58:51;12.10;98.40
8408;DHT22;4241;48.452;9.216;2023-12-28T10:01:18;12.10;99.90
8408;DHT22;4241;48.452;9.216;2023-12-28T10:03:45;12.10;99.80
8408;DHT22;4241;48.452;9.216;2023-12-28T10:06:12;12.10;99.90
8408;DHT22;4241;48.452;9.216;2023-12-28T10:08:46;12.00;99.90
8408;DHT22;4241;48.452;9.216;2023-12-28T10:11:14;12.00;99.90
8408;DHT22;4241;48.452;9.216;2023-12-28T10:13:41;11.90;99.90
8408;DHT22;4241;48.452;9.216;2023-12-28T10:16:09;12.40;99.90
8408;DHT22;4241;48.452;9.216;2023-12-28T10:18:39;11.50;99.90
8408;DHT22;4241;48.452;9.216;2023-12-28T10:21:07;11.80;99.90
8408;DHT22;4241;48.452;9.216;2023-12-28T10:23:34;11.80;99.90
8408;DHT22;4241;48.452;9.216;2023-12-28T10:26:04;11.90;99.90
8408;DHT22;4241;48.452;9.216;2023-12-28T10:28:31;12.30;99.90
8408;DHT22;4241;48.452;9.216;2023-12-28T10:30:59;12.10;99.90
8408;DHT22;4241;48.452;9.216;2023-12-28T10:33:25;12.00;99.90
8408;DHT22;4241;48.452;9.216;2023-12-28T10:35:52;11.80;99.90
8408;DHT22;4241;48.452;9.216;2023-12-28T10:38:20;12.10;99.90
8408;DHT22;4241;48.452;9.216;2023-12-28T10:40:47;12.20;99.90
8408;DHT22;4241;48.452;9.216;2023-12-28T10:43:17;12.20;99.90
8408;DHT22;4241;48.452;9.216;2023-12-28T10:45:47;11.80;99.90
8408;DHT22;4241;48.452;9.216;2023-12-28T10:48:21;11.80;99.90
8408;DHT22;4241;48.452;9.216;2023-12-28T10:50:52;11.80;99.90
8408;DHT22;4241;48.452;9.216;2023-12-28T10:53:30;11.80;99.90
8408;DHT22;4241;48.452;9.216;2023-12-28T10:56:08;11.90;99.90
8408;DHT22;4241;48.452;9.216;2023-12-28T10:58:42;11.70;99.90
8408;DHT22;4241;48.452;9.216;2023-12-28T11:01:12;12.30;99.90
8408;DHT22;4241;48.452;9.216;2023-12-28T11:03:45;11.80;99.90
8408;DHT22;4241;48.452;9.216;2023-12-28T11:06:14;11.70;99.90
8408;DHT22;4241;48.452;9.216;2023-12-28T11:08:44;12.20;99.90
8408;DHT22;4241;48.452;9.216;2023-12-28T11:11:14;12.20;99.90
8408;DHT22;4241;48.452;9.216;2023-12-28T11:13:45;12.20;99.90
8408;DHT22;4241;48.452;9.216;2023-12-28T11:16:12;11.80;99.90
8408;DHT22;4241;48.452;9.216;2023-12-28T11:18:40;11.80;99.90
8408;DHT22;4241;48.452;9.216;2023-12-28T11:21:07;12.20;99.90
8408;DHT22;4241;48.452;9.216;2023-12-28T11:23:34;11.90;99.90
8408;DHT22;4241;48.452;9.216;2023-12-28T11:26:01;12.30;99.90
8408;DHT22;4241;48.452;9.216;2023-12-28T11:28:28;11.90;99.90
8408;DHT22;4241;48.452;9.216;2023-12-28T11:30:57;11.90;99.90
8408;DHT22;4241;48.452;9.216;2023-12-28T11:33:30;13.50;99.90
8408;DHT22;4241;48.452;9.216;2023-12-28T11:35:57;12.30;99.90
8408;DHT22;4241;48.452;9.216;2023-12-28T11:38:25;12.00;99.90
8408;DHT22;4241;48.452;9.216;2023-12-28T11:40:52;12.00;99.90
8408;DHT22;4241;48.452;9.216;2023-12-28T11:43:21;12.10;99.90
8408;DHT22;4241;48.452;9.216;2023-12-28T11:45:50;12.50;99.90
8408;DHT22;4241;48.452;9.216;2023-12-28T11:48:25;12.30;99.90
8408;DHT22;4241;48.452;9.216;2023-12-28T11:50:54;12.30;99.90
8408;DHT22;4241;48.452;9.216;2023-12-28T11:53:23;12.80;99.90
8408;DHT22;4241;48.452;9.216;2023-12-28T11:55:50;12.30;99.90
8408;DHT22;4241;48.452;9.216;2023-12-28T11:58:16;12.40;99.90
8408;DHT22;4241;48.452;9.216;2023-12-28T12:00:44;12.40;99.90
8408;DHT22;4241;48.452;9.216;2023-12-28T12:03:12;12.40;99.90
8408;DHT22;4241;48.452;9.216;2023-12-28T12:05:40;12.40;99.90
8408;DHT22;4241;48.452;9.216;2023-12-28T12:08:08;12.90;99.90
8408;DHT22;4241;48.452;9.216;2023-12-28T12:10:36;12.40;99.90
8408;DHT22;4241;48.452;9.216;2023-12-28T12:13:03;12.40;99.90
8408;DHT22;4241;48.452;9.216;2023-12-28T12:15:30;12.40;99.90
8408;DHT22;4241;48.452;9.216;2023-12-28T12:17:57;12.40;99.90
8408;DHT22;4241;48.452;9.216;2023-12-28T12:20:24;12.70;99.90
8408;DHT22;4241;48.452;9.216;2023-12-28T12:22:53;12.40;99.90
8408;DHT22;4241;48.452;9.216;2023-12-28T12:25:19;12.60;99.90
8408;DHT22;4241;48.452;9.216;2023-12-28T12:27:46;12.40;99.90
8408;DHT22;4241;48.452;9.216;2023-12-28T12:30:13;12.70;99.90
8408;DHT22;4241;48.452;9.216;2023-12-28T12:32:40;12.20;99.90
8408;DHT22;4241;48.452;9.216;2023-12-28T12:35:09;12.10;99.90
8408;DHT22;4241;48.452;9.216;2023-12-28T12:37:37;12.00;99.90
8408;DHT22;4241;48.452;9.216;2023-12-28T12:40:06;12.40;99.90
8408;DHT22;4241;48.452;9.216;2023-12-28T12:42:34;11.90;99.90
8408;DHT22;4241;48.452;9.216;2023-12-28T12:45:01;11.90;99.90
8408;DHT22;4241;48.452;9.216;2023-12-28T12:47:32;11.80;99.90
8408;DHT22;4241;48.452;9.216;2023-12-28T12:49:59;11.80;99.90
8408;DHT22;4241;48.452;9.216;2023-12-28T12:52:26;11.60;99.90
8408;DHT22;4241;48.452;9.216;2023-12-28T12:54:54;12.10;99.90
8408;DHT22;4241;48.452;9.216;2023-12-28T12:57:23;11.70;99.90
8408;DHT22;4241;48.452;9.216;2023-12-28T12:59:51;12.10;99.90
8408;DHT22;4241;48.452;9.216;2023-12-28T13:02:18;12.20;99.90
8408;DHT22;4241;48.452;9.216;2023-12-28T13:04:44;11.60;99.90
8408;DHT22;4241;48.452;9.216;2023-12-28T13:07:11;12.00;99.90
8408;DHT22;4241;48.452;9.216;2023-12-28T13:09:38;11.70;99.90
8408;DHT22;4241;48.452;9.216;2023-12-28T13:12:06;11.80;99.90
8408;DHT22;4241;48.452;9.216;2023-12-28T13:14:34;11.70;99.90
8408;DHT22;4241;48.452;9.216;2023-12-28T13:17:01;12.00;99.90
8408;DHT22;4241;48.452;9.216;2023-12-28T13:19:28;11.80;99.90
8408;DHT22;4241;48.452;9.216;2023-12-28T13:21:54;12.00;99.90
8408;DHT22;4241;48.452;9.216;2023-12-28T13:24:20;11.80;99.90
8408;DHT22;4241;48.452;9.216;2023-12-28T13:26:47;13.20;99.90
8408;DHT22;4241;48.452;9.216;2023-12-28T13:29:14;11.60;99.90
8408;DHT22;4241;48.452;9.216;2023-12-28T13:31:42;11.80;99.90
8408;DHT22;4241;48.452;9.216;2023-12-28T13:34:10;12.00;99.90
8408;DHT22;4241;48.452;9.216;2023-12-28T13:36:37;11.60;99.90
8408;DHT22;4241;48.452;9.216;2023-12-28T13:39:03;11.50;99.90
8408;DHT22;4241;48.452;9.216;2023-12-28T13:41:31;12.00;99.90
8408;DHT22;4241;48.452;9.216;2023-12-28T13:43:57;11.20;99.90
8408;DHT22;4241;48.452;9.216;2023-12-28T13:46:27;11.50;99.90
8408;DHT22;4241;48.452;9.216;2023-12-28T13:48:55;11.40;99.90
8408;DHT22;4241;48.452;9.216;2023-12-28T13:51:22;11.40;99.90
8408;DHT22;4241;48.452;9.216;2023-12-28T13:53:49;11.70;99.90
8408;DHT22;4241;48.452;9.216;2023-12-28T13:56:16;11.60;99.90
8408;DHT22;4241;48.452;9.216;2023-12-28T13:58:43;11.70;99.90
8408;DHT22;4241;48.452;9.216;2023-12-28T14:01:10;11.70;99.90
8408;DHT22;4241;48.452;9.216;2023-12-28T14:03:37;11.70;99.90
8408;DHT22;4241;48.452;9.216;2023-12-28T14:06:05;11.20;99.90
8408;DHT22;4241;48.452;9.216;2023-12-28T14:08:32;11.10;99.90
8408;DHT22;4241;48.452;9.216;2023-12-28T14:10:59;11.30;99.90
8408;DHT22;4241;48.452;9.216;2023-12-28T14:13:26;10.90;99.90
8408;DHT22;4241;48.452;9.216;2023-12-28T14:15:54;11.30;99.90
8408;DHT22;4241;48.452;9.216;2023-12-28T14:18:21;10.90;99.90
8408;DHT22;4241;48.452;9.216;2023-12-28T14:20:48;10.80;99.90
8408;DHT22;4241;48.452;9.216;2023-12-28T14:23:18;11.20;99.90
8408;DHT22;4241;48.452;9.216;2023-12-28T14:25:46;10.70;99.90
8408;DHT22;4241;48.452;9.216;2023-12-28T14:28:19;12.10;99.90
8408;DHT22;4241;48.452;9.216;2023-12-28T14:30:46;10.60;99.90
8408;DHT22;4241;48.452;9.216;2023-12-28T14:33:14;9.10;99.90
8408;DHT22;4241;48.452;9.216;2023-12-28T14:35:41;10.50;99.90
8408;DHT22;4241;48.452;9.216;2023-12-28T14:38:08;10.40;99.90
8408;DHT22;4241;48.452;9.216;2023-12-28T14:40:37;10.50;99.90
8408;DHT22;4241;48.452;9.216;2023-12-28T14:43:03;10.80;99.90
8408;DHT22;4241;48.452;9.216;2023-12-28T14:45:30;10.90;99.90
8408;DHT22;4241;48.452;9.216;2023-12-28T14:47:57;10.80;99.90
8408;DHT22;4241;48.452;9.216;2023-12-28T14:50:24;10.70;99.90
8408;DHT22;4241;48.452;9.216;2023-12-28T14:52:51;10.80;99.90
8408;DHT22;4241;48.452;9.216;2023-12-28T14:55:18;10.30;99.90
8408;DHT22;4241;48.452;9.216;2023-12-28T14:57:46;10.70;99.90
8408;DHT22;4241;48.452;9.216;2023-12-28T15:00:14;10.20;99.90
8408;DHT22;4241;48.452;9.216;2023-12-28T15:02:41;10.20;99.90
8408;DHT22;4241;48.452;9.216;2023-12-28T15:05:07;10.10;99.90
8408;DHT22;4241;48.452;9.216;2023-12-28T15:07:37;10.60;99.90
8408;DHT22;4241;48.452;9.216;2023-12-28T15:10:05;10.50;99.90
8408;DHT22;4241;48.452;9.216;2023-12-28T15:12:34;10.20;99.90
8408;DHT22;4241;48.452;9.216;2023-12-28T15:15:03;10.10;99.90
8408;DHT22;4241;48.452;9.216;2023-12-28T15:17:31;10.10;99.90
8408;DHT22;4241;48.452;9.216;2023-12-28T15:19:58;10.20;99.90
8408;DHT22;4241;48.452;9.216;2023-12-28T15:22:25;10.10;99.90
8408;DHT22;4241;48.452;9.216;2023-12-28T15:24:53;10.10;99.90
8408;DHT22;4241;48.452;9.216;2023-12-28T15:27:19;10.10;99.90
8408;DHT22;4241;48.452;9.216;2023-12-28T15:29:46;10.30;99.90
8408;DHT22;4241;48.452;9.216;2023-12-28T15:32:14;10.60;99.90
8408;DHT22;4241;48.452;9.216;2023-12-28T15:34:41;10.60;99.90
8408;DHT22;4241;48.452;9.216;2023-12-28T15:37:08;10.60;99.90
8408;DHT22;4241;48.452;9.216;2023-12-28T15:39:35;10.50;99.90
8408;DHT22;4241;48.452;9.216;2023-12-28T15:42:03;10.20;99.90
8408;DHT22;4241;48.452;9.216;2023-12-28T15:44:30;10.10;99.90
8408;DHT22;4241;48.452;9.216;2023-12-28T15:46:57;10.10;99.90
8408;DHT22;4241;48.452;9.216;2023-12-28T15:49:25;10.10;99.90
8408;DHT22;4241;48.452;9.216;2023-12-28T15:51:51;10.00;99.90
8408;DHT22;4241;48.452;9.216;2023-12-28T15:54:18;10.60;99.90
8408;DHT22;4241;48.452;9.216;2023-12-28T15:56:45;10.10;99.90
8408;DHT22;4241;48.452;9.216;2023-12-28T15:59:12;10.40;99.90
8408;DHT22;4241;48.452;9.216;2023-12-28T16:01:39;10.50;99.90
8408;DHT22;4241;48.452;9.216;2023-12-28T16:04:05;10.10;99.90
8408;DHT22;4241;48.452;9.216;2023-12-28T16:06:33;10.50;99.90